Time;durP1;ratioP1;P1;durP2;ratioP2;P2;SDS_P1;SDS_P2;PMS_P1;PMS_P2;Temp;Humidity;BMP_temperature;BMP_pressure;BME280_temperature;BME280_humidity;BME280_pressure;Samples;Min_cycle;Max_cycle;Signal;HPM_P1;HPM_P2
2021/07/14 00:01:34;;;;;;;14.13;11.00;;;;;;;28.23;49.28;99821.06;3496679;28;20032;-76
2021/07/14 00:03:15;;;;;;;15.23;10.82;;;;;;;28.23;48.83;99831.25;3493653;28;20089;-77
2021/07/14 00:04:55;;;;;;;13.17;11.77;;;;;;;28.24;48.77;99830.09;3508400;28;20040;-76
2021/07/14 00:06:37;;;;;;;13.77;11.10;;;;;;;28.23;48.95;99833.97;3511585;28;20051;-76
2021/07/14 00:08:18;;;;;;;12.32;11.02;;;;;;;28.22;49.07;99833.16;3511288;28;20040;-76
2021/07/14 00:09:58;;;;;;;12.47;11.17;;;;;;;28.22;48.79;99830.44;3511439;28;20498;-75
2021/07/14 00:11:53;;;;;;;18.10;11.63;;;;;;;28.20;49.17;99834.59;3511466;28;20055;-76
2021/07/14 00:13:45;;;;;;;13.18;11.75;;;;;;;28.17;49.50;99827.81;3511401;28;20048;-77
2021/07/14 00:22:51;;;;;;;17.40;11.73;;;;;;;28.05;49.23;99825.59;3510919;28;20082;-76
2021/07/14 00:24:32;;;;;;;14.57;13.07;;;;;;;28.05;49.67;99827.53;3511305;28;20392;-76
2021/07/14 00:26:12;;;;;;;15.87;11.63;;;;;;;28.04;49.71;99829.47;3496518;28;20040;-76
2021/07/14 00:27:53;;;;;;;14.50;12.07;;;;;;;28.02;49.80;99819.91;3508205;28;20054;-76
2021/07/14 00:29:36;;;;;;;15.03;11.40;;;;;;;28.04;49.56;99834.13;3511178;28;20032;-76
2021/07/14 00:31:18;;;;;;;14.95;12.20;;;;;;;28.02;50.15;99831.69;3511150;28;20032;-76
2021/07/14 00:33:00;;;;;;;14.07;11.40;;;;;;;28.02;49.69;99833.63;3510914;28;20499;-75
2021/07/14 00:34:41;;;;;;;18.23;12.65;;;;;;;28.01;50.01;99838.31;3511194;28;20122;-76
2021/07/14 00:36:22;;;;;;;20.23;13.23;;;;;;;28.01;49.94;99840.19;3511121;28;20085;-76
2021/07/14 00:38:02;;;;;;;12.53;11.27;;;;;;;28.00;50.16;99838.59;3511147;28;20560;-76
2021/07/14 00:39:44;;;;;;;16.83;11.70;;;;;;;27.98;49.72;99838.88;3510912;28;20514;-77
2021/07/14 00:41:24;;;;;;;12.60;11.30;;;;;;;27.98;49.90;99846.31;3510856;28;20430;-76
2021/07/14 00:43:05;;;;;;;22.70;12.47;;;;;;;27.98;49.69;99846.31;3510977;28;20036;-76
2021/07/14 00:44:46;;;;;;;13.95;11.63;;;;;;;27.98;49.86;99846.31;3510699;28;20054;-75
2021/07/14 00:46:27;;;;;;;13.70;11.73;;;;;;;27.98;49.88;99843.56;3511006;28;20044;-76
2021/07/14 00:48:09;;;;;;;17.23;11.82;;;;;;;27.98;50.20;99849.03;3511211;28;20051;-76
2021/07/14 00:49:49;;;;;;;13.27;11.15;;;;;;;27.98;49.96;99849.84;3510886;28;20044;-75
2021/07/14 00:51:30;;;;;;;13.13;11.13;;;;;;;27.97;50.09;99841.94;3495931;28;20105;-75
2021/07/14 00:53:11;;;;;;;13.37;11.17;;;;;;;27.97;50.00;99848.25;3507876;28;20039;-75
2021/07/14 00:54:52;;;;;;;16.90;12.20;;;;;;;27.98;50.50;99844.38;3510941;28;20036;-75
2021/07/14 00:56:32;;;;;;;13.37;11.93;;;;;;;27.97;49.96;99844.69;3510983;28;20395;-75
2021/07/14 00:58:13;;;;;;;13.00;11.17;;;;;;;27.94;50.40;99845.31;3510853;28;20450;-75
2021/07/14 00:59:54;;;;;;;16.23;12.27;;;;;;;27.94;50.13;99850.78;3495796;28;20135;-75
2021/07/14 01:01:34;;;;;;;14.23;12.57;;;;;;;27.90;49.94;99845.09;3507656;28;20055;-75
2021/07/14 01:03:18;;;;;;;13.47;11.60;;;;;;;27.89;50.04;99848.16;3510738;28;20120;-74
2021/07/14 01:05:09;;;;;;;15.50;12.20;;;;;;;27.90;50.57;99844.28;3509683;28;20530;-74
2021/07/14 01:07:04;;;;;;;13.40;11.20;;;;;;;27.92;50.33;99853.03;3510427;28;20048;-74
2021/07/14 01:08:58;;;;;;;28.77;13.25;;;;;;;27.90;50.16;99845.09;3495543;28;20127;-75
2021/07/14 01:10:56;;;;;;;13.05;11.68;;;;;;;27.90;50.23;99844.28;3494233;28;20526;-75
2021/07/14 01:13:15;;;;;;;16.10;11.98;;;;;;;27.91;50.52;99840.44;3510070;28;20072;-73
2021/07/14 01:15:04;;;;;;;17.05;12.20;;;;;;;27.86;49.99;99846.03;3510377;28;20054;-74
2021/07/14 01:16:45;;;;;;;15.52;12.05;;;;;;;27.84;50.24;99846.34;3510788;28;20513;-74
2021/07/14 01:18:37;;;;;;;13.38;11.30;;;;;;;27.82;50.29;99840.34;3510295;28;20042;-75
2021/07/14 01:20:43;;;;;;;16.23;11.52;;;;;;;27.83;50.01;99839.25;3495345;28;20094;-74
2021/07/14 01:23:00;;;;;;;13.77;11.73;;;;;;;27.82;50.15;99843.06;3510202;28;20048;-74
2021/07/14 01:24:57;;;;;;;12.75;11.57;;;;;;;27.79;50.42;99841.72;3510294;28;20044;-74
2021/07/14 01:26:38;;;;;;;12.63;11.10;;;;;;;27.77;50.63;99835.75;3495641;28;20037;-75
2021/07/14 01:28:20;;;;;;;15.73;13.00;;;;;;;27.77;50.32;99843.97;3507307;28;20581;-74
2021/07/14 01:30:09;;;;;;;13.82;11.98;;;;;;;27.78;50.21;99842.06;3496080;28;20594;-74
2021/07/14 01:31:51;;;;;;;20.77;13.27;;;;;;;27.76;50.27;99850.56;3498647;28;20060;-75
2021/07/14 01:33:34;;;;;;;17.55;12.63;;;;;;;27.76;50.69;99850.56;3511412;28;20085;-74
2021/07/14 01:35:25;;;;;;;15.57;11.95;;;;;;;27.76;50.20;99839.59;3509305;28;20066;-74
2021/07/14 01:37:07;;;;;;;17.92;12.82;;;;;;;27.74;50.86;99836.34;3525652;28;20044;-75
2021/07/14 01:38:48;;;;;;;20.58;12.82;;;;;;;27.73;50.46;99840.22;3508352;28;20045;-75
2021/07/14 01:40:30;;;;;;;15.45;11.95;;;;;;;27.71;50.70;99842.44;3507773;28;20055;-74
2021/07/14 01:42:12;;;;;;;13.93;11.60;;;;;;;27.69;51.04;99844.69;3481621;28;20037;-74
2021/07/14 01:43:56;;;;;;;18.80;12.15;;;;;;;27.69;50.64;99844.69;3504523;28;20134;-74
2021/07/14 01:45:38;;;;;;;16.15;11.85;;;;;;;27.69;50.94;99844.69;3495387;28;20075;-74
2021/07/14 01:47:20;;;;;;;14.25;11.98;;;;;;;27.68;50.81;99842.25;3507389;28;20040;-77
2021/07/14 01:49:08;;;;;;;15.30;11.73;;;;;;;27.68;50.89;99845.81;3495472;28;20037;-76
2021/07/14 01:50:50;;;;;;;13.43;11.02;;;;;;;27.65;51.23;99838.22;3493642;28;20132;-76
2021/07/14 01:52:31;;;;;;;16.58;11.65;;;;;;;27.66;51.00;99844.50;3492773;28;20517;-75
2021/07/14 01:54:14;;;;;;;19.25;12.55;;;;;;;27.66;50.90;99839.81;3492742;28;20052;-73
2021/07/14 01:55:55;;;;;;;14.93;11.20;;;;;;;27.67;51.34;99851.56;3495102;28;20131;-74
2021/07/14 01:57:38;;;;;;;14.23;11.55;;;;;;;27.66;50.91;99847.22;3478824;28;20459;-74
2021/07/14 01:59:20;;;;;;;18.70;10.95;;;;;;;27.65;51.33;99842.84;3490552;28;20502;-75
2021/07/14 02:01:03;;;;;;;13.95;10.85;;;;;;;27.66;51.26;99850.78;3492652;28;20047;-74
2021/07/14 02:04:33;;;;;;;16.00;12.15;;;;;;;27.68;51.44;99848.53;3493305;28;20048;-75
2021/07/14 02:06:14;;;;;;;15.52;11.30;;;;;;;27.70;51.19;99840.00;3508361;28;20189;-75
2021/07/14 02:07:57;;;;;;;14.50;10.80;;;;;;;27.71;51.64;99847.94;3509955;28;20044;-73
2021/07/14 02:09:40;;;;;;;13.65;11.38;;;;;;;27.73;51.25;99848.44;3495314;28;20052;-75
2021/07/14 02:11:23;;;;;;;15.02;11.27;;;;;;;27.75;51.23;99848.97;3507183;28;20067;-75
2021/07/14 02:13:04;;;;;;;11.77;10.57;;;;;;;27.76;51.36;99845.09;3495155;28;20041;-74
2021/07/14 02:14:48;;;;;;;16.23;11.57;;;;;;;27.77;51.59;99843.97;3506990;28;20525;-74
2021/07/14 02:16:30;;;;;;;11.93;10.93;;;;;;;27.80;51.59;99846.09;3510064;28;20130;-75
2021/07/14 02:18:14;;;;;;;14.02;10.13;;;;;;;27.80;51.55;99845.28;3495084;28;20044;-75
2021/07/14 02:20:00;;;;;;;14.57;10.75;;;;;;;27.83;51.09;99848.25;3492814;28;20037;-76
2021/07/14 02:21:41;;;;;;;13.70;10.73;;;;;;;27.84;51.41;99836.19;3493813;28;20036;-75
2021/07/14 02:23:22;;;;;;;13.50;10.30;;;;;;;27.87;50.86;99842.97;3509662;28;20082;-74
2021/07/14 02:25:04;;;;;;;11.73;10.52;;;;;;;27.89;51.35;99848.97;3512710;28;20047;-75
2021/07/14 02:26:45;;;;;;;16.38;10.70;;;;;;;27.89;51.00;99848.16;3512739;28;20426;-75
2021/07/14 02:28:25;;;;;;;13.70;10.70;;;;;;;27.90;51.27;99847.84;3512950;28;20123;-74
2021/07/14 02:30:16;;;;;;;13.50;10.53;;;;;;;27.90;51.08;99845.09;3512862;28;20054;-75
2021/07/14 02:31:57;;;;;;;12.60;11.30;;;;;;;27.88;50.52;99844.63;3512781;28;20418;-75
2021/07/14 02:33:38;;;;;;;12.03;10.83;;;;;;;27.89;50.54;99853.63;3512611;28;20080;-75
2021/07/14 02:35:19;;;;;;;12.10;10.70;;;;;;;27.90;50.75;99849.78;3497549;28;20139;-75
2021/07/14 02:37:02;;;;;;;16.20;11.55;;;;;;;27.90;50.90;99838.81;3509752;28;20621;-75
2021/07/14 02:38:46;;;;;;;13.38;10.82;;;;;;;27.91;50.81;99845.94;3497726;28;20044;-76
2021/07/14 02:40:56;;;;;;;16.27;10.82;;;;;;;27.93;50.56;99843.66;3495147;28;20086;-76
2021/07/14 02:42:38;;;;;;;17.35;12.10;;;;;;;27.87;50.59;99839.44;3495751;28;20136;-76
2021/07/14 02:44:20;;;;;;;17.75;11.73;;;;;;;27.84;50.39;99847.13;3497283;28;20113;-77
2021/07/14 02:46:08;;;;;;;15.63;11.68;;;;;;;27.82;50.22;99843.88;3481292;28;20134;-73
2021/07/14 02:47:49;;;;;;;16.52;13.05;;;;;;;27.77;50.64;99840.41;3508929;28;20036;-74
2021/07/14 02:49:32;;;;;;;16.67;12.98;;;;;;;27.74;50.39;99849.25;3496288;28;20135;-74
2021/07/14 02:51:13;;;;;;;;;;;;;;;27.75;50.57;99840.75;3492016;28;20074;-75
2021/07/14 02:52:56;;;;;;;11.23;9.85;;;;;;;27.69;50.38;99846.59;3509917;28;19920;-75
2021/07/14 02:54:39;;;;;;;16.33;12.43;;;;;;;27.69;50.60;99852.09;3497350;28;20044;-75
2021/07/14 02:56:23;;;;;;;15.63;11.52;;;;;;;27.69;50.10;99852.91;3509917;28;20051;-75
2021/07/14 02:58:06;;;;;;;14.85;12.60;;;;;;;27.69;50.58;99847.41;3497477;28;20539;-73
2021/07/14 02:59:53;;;;;;;16.00;11.57;;;;;;;27.71;50.52;99850.66;3508597;28;20063;-74
2021/07/14 03:01:40;;;;;;;17.25;11.48;;;;;;;27.73;50.66;99855.84;3497682;28;20043;-75
2021/07/14 03:03:22;;;;;;;14.80;11.23;;;;;;;27.72;50.08;99855.03;3510612;28;20036;-75
2021/07/14 03:05:04;;;;;;;20.38;12.77;;;;;;;27.73;50.64;99850.38;3512662;28;20044;-75
2021/07/14 03:06:45;;;;;;;20.38;13.23;;;;;;;27.74;50.13;99847.31;3512356;28;20047;-74
2021/07/14 03:08:29;;;;;;;18.80;12.73;;;;;;;27.74;50.10;99847.31;3512557;28;20086;-74
2021/07/14 03:10:11;;;;;;;19.40;12.13;;;;;;;27.75;50.49;99848.97;3512933;28;20044;-76
2021/07/14 03:11:53;;;;;;;13.55;11.60;;;;;;;27.75;50.23;99838.00;3512709;28;20051;-74
2021/07/14 03:13:36;;;;;;;17.25;12.65;;;;;;;27.78;49.91;99847.53;3512603;28;20418;-75
2021/07/14 03:15:17;;;;;;;16.05;11.98;;;;;;;27.79;50.00;99847.22;3498025;28;20045;-76
2021/07/14 03:16:58;;;;;;;16.23;11.93;;;;;;;27.81;50.23;99845.00;3495378;28;20047;-75
2021/07/14 03:18:40;;;;;;;21.67;12.32;;;;;;;27.83;50.02;99851.00;3509410;28;20054;-75
2021/07/14 03:20:22;;;;;;;17.38;12.18;;;;;;;27.86;50.17;99846.03;3502261;28;20052;-75
2021/07/14 03:22:03;;;;;;;18.58;12.27;;;;;;;27.87;50.00;99844.91;3497057;28;20033;-76
2021/07/14 03:23:45;;;;;;;15.35;11.23;;;;;;;27.87;50.30;99840.22;3483414;28;20507;-75
2021/07/14 03:25:27;;;;;;;20.10;12.00;;;;;;;27.89;50.32;99848.16;3480422;28;20044;-75
2021/07/14 03:27:11;;;;;;;21.50;12.10;;;;;;;27.91;49.79;99851.41;3480650;28;20131;-76
2021/07/14 03:28:53;;;;;;;23.45;13.05;;;;;;;27.91;50.37;99843.19;3481010;28;20503;-76
2021/07/14 03:30:34;;;;;;;23.58;12.45;;;;;;;27.90;50.47;99845.09;3494666;28;20470;-74
2021/07/14 03:32:16;;;;;;;19.30;12.80;;;;;;;27.90;50.15;99853.31;3483443;28;20041;-75
2021/07/14 03:33:57;;;;;;;20.00;13.43;;;;;;;27.92;50.05;99845.59;3494404;28;20547;-75
2021/07/14 03:35:39;;;;;;;18.92;12.70;;;;;;;27.93;49.94;99846.41;3497727;28;20529;-75
2021/07/14 03:37:20;;;;;;;37.63;13.57;;;;;;;27.94;49.88;99854.34;3498062;28;20051;-75
2021/07/14 03:39:04;;;;;;;15.75;12.20;;;;;;;27.96;49.85;99848.53;3483392;28;20040;-75
2021/07/14 03:40:45;;;;;;;21.70;12.98;;;;;;;27.99;50.03;99845.19;3495369;28;20465;-75
2021/07/14 03:42:26;;;;;;;22.15;12.68;;;;;;;27.99;49.86;99840.53;3483098;28;20072;-75
2021/07/14 03:44:07;;;;;;;20.73;11.90;;;;;;;28.00;49.85;99846.81;3493950;28;20045;-76
2021/07/14 03:45:48;;;;;;;;;;;;;;;28.05;50.11;99843.97;3497698;28;20044;-73
2021/07/14 03:47:29;;;;;;;16.35;13.27;;;;;;;28.02;50.13;99850.88;3496568;28;19920;-74
2021/07/14 03:49:14;;;;;;;21.02;12.35;;;;;;;28.02;50.06;99848.13;3483108;28;21336;-75
2021/07/14 03:50:55;;;;;;;17.30;12.10;;;;;;;28.03;50.20;99847.00;3495097;28;20071;-74
2021/07/14 03:52:37;;;;;;;18.83;11.95;;;;;;;28.07;49.73;99847.22;3497679;28;20043;-73
2021/07/14 03:54:19;;;;;;;18.48;13.27;;;;;;;28.09;49.74;99841.41;3497442;28;20407;-75
2021/07/14 03:55:59;;;;;;;18.00;12.70;;;;;;;28.12;49.82;99847.09;3498067;28;20043;-73
2021/07/14 03:57:40;;;;;;;18.77;13.00;;;;;;;28.15;49.77;99846.47;3497666;28;20051;-74
2021/07/14 03:59:21;;;;;;;18.48;12.80;;;;;;;28.18;49.58;99840.38;3497510;28;20050;-75
2021/07/14 04:01:02;;;;;;;17.10;12.87;;;;;;;28.21;49.49;99841.69;3497513;28;20047;-74
2021/07/14 04:02:44;;;;;;;18.87;12.80;;;;;;;28.21;49.83;99844.44;3482787;28;20398;-74
2021/07/14 04:04:25;;;;;;;24.38;13.27;;;;;;;28.21;49.73;99837.00;3494915;28;20502;-75
2021/07/14 04:06:10;;;;;;;24.73;14.02;;;;;;;28.24;49.86;99832.84;3482716;28;20052;-74
2021/07/14 04:07:53;;;;;;;16.75;12.88;;;;;;;28.23;50.15;99832.03;3480245;28;20063;-74
2021/07/14 04:09:34;;;;;;;21.35;12.65;;;;;;;28.23;49.76;99837.53;3480191;28;20480;-74
2021/07/14 04:11:15;;;;;;;19.23;13.80;;;;;;;28.23;50.25;99840.25;3482798;28;20036;-75
2021/07/14 04:12:56;;;;;;;21.38;13.13;;;;;;;28.24;49.93;99839.16;3466133;28;20056;-75
2021/07/14 04:14:36;;;;;;;28.97;13.23;;;;;;;28.25;50.11;99834.50;3491891;28;20051;-74
2021/07/14 04:16:17;;;;;;;35.53;13.57;;;;;;;28.26;49.92;99833.34;3497372;28;20048;-75
2021/07/14 04:17:58;;;;;;;21.90;13.60;;;;;;;28.28;49.95;99837.41;3482771;28;20655;-75
2021/07/14 04:19:42;;;;;;;22.13;14.20;;;;;;;28.31;49.74;99832.44;3494440;28;20040;-75
2021/07/14 04:21:22;;;;;;;21.10;14.60;;;;;;;28.34;50.34;99840.03;3497122;28;20036;-75
2021/07/14 04:23:04;;;;;;;23.93;13.20;;;;;;;28.36;50.19;99837.81;3497408;28;20033;-76
2021/07/14 04:24:44;;;;;;;23.65;14.05;;;;;;;28.38;50.40;99836.38;3497227;28;20040;-76
2021/07/14 04:26:25;;;;;;;20.17;12.33;;;;;;;28.39;50.23;99837.19;3497335;28;20478;-76
2021/07/14 04:28:06;;;;;;;23.50;14.90;;;;;;;28.40;49.92;99841.56;3497503;28;20448;-74
2021/07/14 04:29:46;;;;;;;18.17;13.07;;;;;;;28.38;50.01;99839.13;3497133;28;20113;-76
2021/07/14 04:31:27;;;;;;;18.93;14.07;;;;;;;28.40;50.18;99841.56;3497131;28;20044;-75
2021/07/14 04:33:08;;;;;;;20.60;12.60;;;;;;;28.40;50.05;99836.88;3497223;28;20041;-76
2021/07/14 04:34:48;;;;;;;34.37;14.40;;;;;;;28.43;50.49;99836.25;3496922;28;20407;-74
2021/07/14 04:36:29;;;;;;;18.63;13.00;;;;;;;28.46;50.05;99830.19;3482319;28;20387;-77
2021/07/14 04:38:10;;;;;;;19.40;14.53;;;;;;;28.50;49.92;99841.34;3494311;28;20040;-76
2021/07/14 04:39:51;;;;;;;16.40;12.83;;;;;;;28.55;49.70;99843.13;3482045;28;20474;-75
2021/07/14 04:41:31;;;;;;;20.03;13.23;;;;;;;28.60;49.94;99843.00;3494296;28;20543;-77
2021/07/14 04:43:13;;;;;;;24.08;13.48;;;;;;;28.66;49.81;99845.34;3497006;28;20037;-76
2021/07/14 04:44:53;;;;;;;16.88;12.48;;;;;;;28.70;49.57;99840.81;3481260;28;20512;-76
2021/07/14 04:46:34;;;;;;;15.63;11.33;;;;;;;28.78;49.26;99835.72;3493543;28;20040;-77
2021/07/14 04:48:15;;;;;;;18.43;13.13;;;;;;;28.82;49.59;99837.53;3496995;28;20865;-77
2021/07/14 04:49:55;;;;;;;15.87;12.97;;;;;;;28.84;49.24;99829.00;3482352;28;20519;-77
2021/07/14 04:51:36;;;;;;;17.37;12.57;;;;;;;28.92;49.10;99840.03;3493903;28;20510;-76
2021/07/14 04:53:17;;;;;;;20.77;12.87;;;;;;;28.99;48.78;99838.75;3495708;28;20040;-77
2021/07/14 04:54:57;;;;;;;23.27;12.30;;;;;;;29.04;48.78;99844.94;3496444;28;20090;-77
2021/07/14 04:56:38;;;;;;;15.30;11.73;;;;;;;29.09;48.80;99836.63;3497017;28;20076;-75
2021/07/14 04:58:19;;;;;;;22.60;13.13;;;;;;;29.14;49.02;99828.22;3495800;28;20127;-77
2021/07/14 05:00:00;;;;;;;27.17;12.40;;;;;;;29.19;48.86;99835.50;3496647;28;20104;-78
2021/07/14 05:01:41;;;;;;;20.37;13.17;;;;;;;29.23;48.35;99830.22;3496752;28;20521;-79
2021/07/14 05:03:23;;;;;;;22.23;12.50;;;;;;;29.26;48.01;99829.59;3496578;28;20287;-78
2021/07/14 05:05:04;;;;;;;15.15;11.00;;;;;;;29.31;48.26;99832.19;3496709;28;20040;-78
2021/07/14 05:06:47;;;;;;;16.42;10.80;;;;;;;29.34;47.94;99828.81;3481916;28;20041;-77
2021/07/14 05:08:27;;;;;;;17.88;12.88;;;;;;;29.41;47.53;99833.84;3493656;28;20090;-77
2021/07/14 05:10:10;;;;;;;17.73;11.80;;;;;;;29.46;47.37;99829.03;3496821;28;20484;-76
2021/07/14 05:11:50;;;;;;;18.08;11.15;;;;;;;29.52;47.17;99835.97;3496481;28;20415;-75
2021/07/14 05:13:31;;;;;;;17.97;13.30;;;;;;;29.57;47.42;99835.03;3496652;28;20181;-76
2021/07/14 05:15:13;;;;;;;22.03;12.33;;;;;;;29.62;47.48;99836.84;3496941;28;20123;-76
2021/07/14 05:16:54;;;;;;;18.42;12.73;;;;;;;29.69;46.99;99831.72;3496475;28;20052;-76
2021/07/14 05:18:38;;;;;;;12.67;11.27;;;;;;;29.74;46.94;99831.53;3496653;28;20384;-75
2021/07/14 05:20:19;;;;;;;18.02;11.13;;;;;;;29.78;46.53;99832.53;3496357;28;20048;-75
2021/07/14 05:21:59;;;;;;;17.70;11.33;;;;;;;29.84;46.52;99834.00;3496471;28;20087;-76
2021/07/14 05:23:40;;;;;;;13.40;11.07;;;;;;;29.90;46.57;99831.94;3496818;28;20037;-76
2021/07/14 05:25:22;;;;;;;14.05;11.15;;;;;;;29.97;46.18;99832.25;3497100;28;20050;-75
2021/07/14 05:27:03;;;;;;;21.60;11.23;;;;;;;30.02;46.15;99826.59;3497006;28;20040;-72
2021/07/14 05:28:44;;;;;;;15.95;10.65;;;;;;;30.09;45.54;99834.38;3481898;28;20825;-73
2021/07/14 05:30:25;;;;;;;14.05;9.95;;;;;;;30.13;45.69;99835.38;3494549;28;20055;-74
2021/07/14 05:32:07;;;;;;;29.77;11.68;;;;;;;30.19;45.54;99832.13;3497001;28;20041;-76
2021/07/14 05:33:47;;;;;;;19.17;10.63;;;;;;;30.25;45.42;99830.03;3496591;28;20392;-77
2021/07/14 05:35:28;;;;;;;18.33;10.13;;;;;;;30.30;45.01;99834.59;3496370;28;20526;-76
2021/07/14 05:37:09;;;;;;;19.90;10.97;;;;;;;30.36;44.95;99833.28;3496359;28;20040;-78
2021/07/14 05:38:50;;;;;;;12.53;10.63;;;;;;;30.41;44.83;99835.88;3496016;28;20436;-76
2021/07/14 05:40:30;;;;;;;16.37;10.20;;;;;;;30.46;44.89;99843.97;3496248;28;20068;-78
2021/07/14 05:42:11;;;;;;;16.17;10.30;;;;;;;30.53;44.46;99843.47;3496663;28;20036;-79
2021/07/14 05:43:52;;;;;;;15.68;10.35;;;;;;;30.58;44.23;99838.63;3496078;28;20131;-80
2021/07/14 05:45:33;;;;;;;13.73;9.18;;;;;;;30.64;44.32;99834.59;3496561;28;20047;-82
2021/07/14 05:47:14;;;;;;;14.55;9.98;;;;;;;30.69;43.95;99836.34;3496484;28;20037;-81
2021/07/14 05:49:00;;;;;;;13.43;9.33;;;;;;;30.75;43.77;99840.56;3495459;28;20072;-81
2021/07/14 05:50:43;;;;;;;20.45;10.07;;;;;;;30.83;43.50;99833.44;3496439;28;20348;-82
2021/07/14 05:52:23;;;;;;;15.23;9.65;;;;;;;30.89;43.63;99839.59;3496608;28;20253;-81
2021/07/14 05:54:04;;;;;;;14.80;9.40;;;;;;;30.94;43.36;99831.97;3495657;28;20101;-81
2021/07/14 05:55:45;;;;;;;12.73;9.90;;;;;;;30.99;42.99;99834.53;3496462;28;20306;-80
2021/07/14 05:57:26;;;;;;;10.30;9.13;;;;;;;31.05;42.90;99832.41;3496230;28;20052;-81
2021/07/14 05:59:06;;;;;;;17.10;9.70;;;;;;;31.11;42.71;99828.38;3496443;28;20310;-80
2021/07/14 06:00:47;;;;;;;16.47;10.00;;;;;;;31.15;42.33;99832.06;3496828;28;20545;-81
2021/07/14 06:02:28;;;;;;;15.83;9.07;;;;;;;31.20;42.25;99823.63;3496028;28;20036;-82
2021/07/14 06:04:09;;;;;;;8.95;8.02;;;;;;;31.25;41.75;99828.94;3497005;28;20048;-82
2021/07/14 06:05:49;;;;;;;9.30;8.38;;;;;;;31.29;41.54;99829.91;3496372;28;20072;-80
2021/07/14 06:07:31;;;;;;;15.33;9.07;;;;;;;31.35;41.59;99824.22;3482133;28;20416;-81
2021/07/14 06:09:12;;;;;;;14.70;9.43;;;;;;;31.41;41.21;99820.16;3493816;28;20295;-82
2021/07/14 06:10:53;;;;;;;14.25;8.68;;;;;;;31.46;41.23;99823.53;3481579;28;20095;-82
2021/07/14 06:12:34;;;;;;;13.80;8.18;;;;;;;31.53;40.73;99825.00;3493465;28;20048;-82
2021/07/14 06:14:15;;;;;;;13.63;8.43;;;;;;;31.57;40.67;99821.22;3496632;28;20040;-82
2021/07/14 06:15:56;;;;;;;14.68;8.05;;;;;;;31.65;40.58;99814.03;3496212;28;20159;-81
2021/07/14 06:17:36;;;;;;;16.03;8.57;;;;;;;31.73;40.48;99824.22;3496407;28;20044;-82
2021/07/14 06:19:18;;;;;;;14.87;8.37;;;;;;;31.80;40.30;99821.72;3481853;28;20291;-81
2021/07/14 06:20:59;;;;;;;16.77;8.18;;;;;;;31.87;39.73;99815.72;3507057;28;20311;-80
2021/07/14 06:22:39;;;;;;;16.17;8.50;;;;;;;31.96;39.69;99815.66;3510612;28;20040;-84
2021/07/14 06:24:20;;;;;;;9.43;8.15;;;;;;;32.04;39.34;99812.88;3495241;28;20047;-82
2021/07/14 06:26:01;;;;;;;8.85;7.10;;;;;;;32.12;39.19;99812.00;3507644;28;20440;-83
2021/07/14 06:27:43;;;;;;;9.50;8.55;;;;;;;32.24;39.22;99818.72;3482159;28;20044;-82
2021/07/14 06:29:24;;;;;;;9.00;7.85;;;;;;;32.34;38.94;99816.34;3489889;28;20076;-80
2021/07/14 06:31:05;;;;;;;15.38;8.15;;;;;;;32.47;38.75;99811.69;3507668;28;20460;-82
2021/07/14 06:32:51;;;;;;;9.83;8.50;;;;;;;32.62;38.76;99815.00;3510500;28;20048;-81
2021/07/14 06:34:32;;;;;;;9.38;7.40;;;;;;;32.76;38.47;99804.47;3510175;28;20748;-81
2021/07/14 06:36:13;;;;;;;7.50;6.78;;;;;;;32.92;38.29;99808.19;3495511;28;20047;-81
2021/07/14 06:37:53;;;;;;;8.27;7.50;;;;;;;33.07;37.56;99805.94;3506769;28;20470;-83
2021/07/14 06:39:34;;;;;;;13.38;7.68;;;;;;;33.24;37.15;99800.22;3495186;28;20037;-82
2021/07/14 06:41:18;;;;;;;7.70;6.82;;;;;;;33.39;36.94;99805.06;3507136;28;20067;-80
2021/07/14 06:43:00;;;;;;;7.63;6.85;;;;;;;33.56;36.90;99798.53;3495028;28;20052;-80
2021/07/14 06:44:41;;;;;;;31.90;8.63;;;;;;;33.69;36.25;99799.34;3493182;28;20102;-81
2021/07/14 06:46:21;;;;;;;20.13;7.13;;;;;;;33.83;36.57;99798.94;3492179;28;20117;-81
2021/07/14 06:48:02;;;;;;;12.35;6.82;;;;;;;33.97;36.21;99795.81;3492343;28;20091;-81
2021/07/14 06:49:44;;;;;;;15.60;7.45;;;;;;;34.09;36.30;99799.38;3507187;28;20036;-82
2021/07/14 06:51:25;;;;;;;13.05;7.63;;;;;;;34.24;36.36;99795.06;3510695;28;20498;-80
2021/07/14 06:53:05;;;;;;;12.23;7.57;;;;;;;34.37;35.93;99800.56;3510722;28;20176;-82
2021/07/14 06:54:46;;;;;;;11.30;7.65;;;;;;;34.46;35.68;99799.22;3511951;28;20043;-82
2021/07/14 06:56:27;;;;;;;9.98;7.88;;;;;;;34.54;35.17;99803.00;3512907;28;20401;-82
2021/07/14 06:58:08;;;;;;;17.20;7.55;;;;;;;34.64;35.31;99810.03;3514137;28;20048;-83
2021/07/14 06:59:48;;;;;;;10.07;6.57;;;;;;;34.74;34.93;99807.56;3514924;28;20144;-82
2021/07/14 07:01:29;;;;;;;9.90;7.00;;;;;;;34.85;34.51;99807.88;3521694;28;20063;-79
2021/07/14 07:03:10;;;;;;;10.57;7.20;;;;;;;34.98;34.82;99805.78;3525232;28;20044;-78
2021/07/14 07:04:51;;;;;;;11.27;7.70;;;;;;;35.06;34.47;99806.78;3523034;28;20059;-80
2021/07/14 07:06:31;;;;;;;7.95;6.88;;;;;;;35.19;34.05;99811.13;3521289;28;20070;-81
2021/07/14 07:08:12;;;;;;;15.20;7.35;;;;;;;35.26;34.39;99816.84;3498384;28;20037;-80
2021/07/14 07:09:53;;;;;;;18.67;7.57;;;;;;;35.35;33.72;99808.34;3510312;28;20494;-81
2021/07/14 07:11:35;;;;;;;12.88;7.85;;;;;;;35.46;34.26;99809.41;3498515;28;20044;-81
2021/07/14 07:13:18;;;;;;;8.40;7.03;;;;;;;35.57;34.12;99804.91;3510265;28;20056;-83
2021/07/14 07:14:59;;;;;;;10.38;7.22;;;;;;;35.68;33.20;99805.22;3512917;28;20039;-83
2021/07/14 07:16:39;;;;;;;10.18;6.90;;;;;;;35.75;33.04;99805.34;3513315;28;20036;-82
2021/07/14 07:18:21;;;;;;;7.88;6.80;;;;;;;35.84;33.06;99805.16;3497954;28;20265;-81
2021/07/14 07:20:03;;;;;;;10.65;7.07;;;;;;;35.93;32.91;99811.28;3509705;28;20131;-82
2021/07/14 07:21:47;;;;;;;15.77;8.07;;;;;;;36.03;32.93;99802.41;3512219;28;20044;-80
2021/07/14 07:23:28;;;;;;;28.10;11.15;;;;;;;36.10;32.44;99801.78;3511990;28;20051;-81
2021/07/14 07:25:10;;;;;;;20.80;8.52;;;;;;;36.22;32.52;99800.84;3512407;28;20137;-82
2021/07/14 07:26:51;;;;;;;15.43;8.82;;;;;;;36.31;32.81;99801.44;3512627;28;20512;-81
2021/07/14 07:28:40;;;;;;;8.18;7.38;;;;;;;36.32;32.91;99810.56;3512494;28;20055;-81
2021/07/14 07:30:21;;;;;;;9.77;7.70;;;;;;;36.37;32.04;99802.72;3483320;28;20071;-80
2021/07/14 07:32:02;;;;;;;9.57;7.05;;;;;;;36.42;32.26;99799.66;3480499;28;20041;-81
2021/07/14 07:33:44;;;;;;;8.18;6.93;;;;;;;36.55;32.41;99791.19;3506948;28;20051;-81
2021/07/14 07:35:24;;;;;;;9.18;6.72;;;;;;;36.64;31.66;99794.56;3511923;28;20048;-82
2021/07/14 07:37:05;;;;;;;10.57;7.30;;;;;;;36.65;31.64;99799.75;3496929;28;20075;-80
2021/07/14 07:38:46;;;;;;;7.68;6.97;;;;;;;36.69;31.76;99794.28;3509205;28;20047;-81
2021/07/14 07:40:27;;;;;;;8.45;7.63;;;;;;;36.63;31.31;99796.56;3483055;28;20052;-80
2021/07/14 07:42:08;;;;;;;7.93;6.93;;;;;;;36.62;31.22;99792.16;3506487;28;20063;-80
2021/07/14 07:43:50;;;;;;;9.73;7.13;;;;;;;36.69;31.52;99794.28;3511870;28;20073;-79
2021/07/14 07:45:31;;;;;;;7.90;7.10;;;;;;;36.82;31.59;99797.69;3496821;28;20536;-84
2021/07/14 07:47:14;;;;;;;15.52;7.65;;;;;;;36.90;31.29;99802.97;3508953;28;20036;-83
2021/07/14 07:48:55;;;;;;;11.65;7.57;;;;;;;37.03;31.00;99800.03;3511438;28;20184;-82
2021/07/14 07:50:35;;;;;;;8.23;7.20;;;;;;;37.19;30.56;99797.94;3511534;28;20684;-80
2021/07/14 07:52:18;;;;;;;9.52;6.65;;;;;;;37.36;30.79;99796.63;3511702;28;20036;-79
2021/07/14 07:53:59;;;;;;;9.93;7.75;;;;;;;37.55;30.59;99798.53;3511458;28;20152;-81
2021/07/14 07:55:40;;;;;;;7.32;6.72;;;;;;;37.71;30.23;99790.81;3511476;28;20426;-80
2021/07/14 07:57:21;;;;;;;8.68;7.10;;;;;;;37.74;30.28;99783.69;3511580;28;20047;-79
2021/07/14 07:59:02;;;;;;;8.23;7.22;;;;;;;37.72;30.00;99780.50;3511761;28;20076;-81
2021/07/14 08:00:43;;;;;;;7.75;7.00;;;;;;;37.59;29.88;99785.50;3497252;28;20082;-80
2021/07/14 08:02:24;;;;;;;8.43;7.40;;;;;;;37.38;29.93;99783.13;3509899;28;20044;-81
2021/07/14 08:04:06;;;;;;;7.85;6.85;;;;;;;37.22;29.89;99788.84;3512156;28;20156;-81